createdAt,value
2018-12-07T00:00:02.574Z,1
2018-12-07T00:05:02.452Z,1
2018-12-07T00:10:03.155Z,1
2018-12-07T00:15:02.586Z,1
2018-12-07T00:20:03.099Z,1
2018-12-07T00:25:02.627Z,1
2018-12-07T00:30:03.352Z,1
2018-12-07T00:35:02.871Z,1
2018-12-07T00:40:02.406Z,1
2018-12-07T00:45:02.787Z,1
2018-12-07T00:50:02.611Z,1
2018-12-07T00:55:03.066Z,1
2018-12-07T01:00:02.484Z,1
2018-12-07T01:05:02.681Z,1
2018-12-07T01:10:03.241Z,1
2018-12-07T01:15:02.679Z,1
2018-12-07T01:20:03.161Z,1
2018-12-07T01:25:02.666Z,1
2018-12-07T01:30:03.067Z,1
2018-12-07T01:35:02.590Z,1
2018-12-07T01:40:03.183Z,1
2018-12-07T01:45:02.662Z,1
2018-12-07T01:50:03.091Z,1
2018-12-07T01:55:02.668Z,1
2018-12-07T02:00:03.238Z,1
2018-12-07T02:05:02.829Z,1
2018-12-07T02:10:03.356Z,1
2018-12-07T02:15:02.842Z,1
2018-12-07T02:20:03.341Z,1
2018-12-07T02:25:02.806Z,1
2018-12-07T02:30:03.407Z,1
2018-12-07T02:35:02.858Z,1
2018-12-07T02:40:02.457Z,1
2018-12-07T02:45:02.844Z,1
2018-12-07T02:50:03.378Z,1
2018-12-07T02:55:02.950Z,1
2018-12-07T03:00:02.429Z,1
2018-12-07T03:05:03.122Z,1
2018-12-07T03:10:02.789Z,1
2018-12-07T03:15:03.235Z,1
2018-12-07T03:20:02.660Z,1
2018-12-07T03:25:03.164Z,1
2018-12-07T03:30:02.664Z,1
2018-12-07T03:35:03.157Z,1
2018-12-07T03:40:02.628Z,1
2018-12-07T03:45:03.001Z,1
2018-12-07T03:50:02.420Z,1
2018-12-07T03:55:02.941Z,1
2018-12-07T04:00:03.705Z,1
2018-12-07T04:05:03.150Z,1
2018-12-07T04:10:02.992Z,1
2018-12-07T04:15:02.691Z,1
2018-12-07T04:20:03.166Z,1
2018-12-07T04:25:02.743Z,1
2018-12-07T04:30:03.295Z,1
2018-12-07T04:35:02.766Z,1
2018-12-07T04:40:03.545Z,1
2018-12-07T04:45:03.050Z,1
2018-12-07T04:50:02.556Z,1
2018-12-07T04:55:03.018Z,1
2018-12-07T05:00:02.806Z,1
2018-12-07T05:05:02.377Z,1
2018-12-07T05:10:02.891Z,1
2018-12-07T05:15:02.433Z,1
2018-12-07T05:20:02.884Z,1
2018-12-07T05:25:02.555Z,1
2018-12-07T05:30:03.252Z,1
2018-12-07T05:35:02.726Z,1
2018-12-07T05:40:03.229Z,1
2018-12-07T05:45:02.677Z,1
2018-12-07T05:50:03.195Z,1
2018-12-07T05:55:02.749Z,1
2018-12-07T06:00:03.310Z,1
2018-12-07T06:05:02.852Z,1
2018-12-07T06:10:02.534Z,1
2018-12-07T06:15:03.046Z,1
2018-12-07T06:20:02.497Z,2
2018-12-07T06:25:03.073Z,2
2018-12-07T06:30:02.593Z,2
2018-12-07T06:35:03.069Z,1
2018-12-07T06:40:02.822Z,1
2018-12-07T06:45:03.363Z,1
2018-12-07T06:50:02.891Z,2
2018-12-07T06:55:03.512Z,2
2018-12-07T07:00:02.937Z,2
2018-12-07T07:05:02.490Z,3
2018-12-07T07:10:02.958Z,8
2018-12-07T07:15:02.494Z,12
2018-12-07T07:20:02.910Z,13
2018-12-07T07:25:02.666Z,26
2018-12-07T07:30:03.244Z,34
2018-12-07T07:35:02.716Z,42
2018-12-07T07:40:03.358Z,47
2018-12-07T07:45:03.199Z,64
2018-12-07T07:50:02.690Z,59
2018-12-07T07:55:03.122Z,60
2018-12-07T08:00:02.913Z,70
2018-12-07T08:05:02.510Z,76
2018-12-07T08:10:03.005Z,88
2018-12-07T08:15:02.518Z,127
2018-12-07T08:20:02.976Z,159
2018-12-07T08:25:02.490Z,149
2018-12-07T08:30:02.963Z,253
2018-12-07T08:35:02.658Z,279
2018-12-07T08:40:03.115Z,290
2018-12-07T08:45:02.580Z,312
2018-12-07T08:50:03.008Z,333
2018-12-07T08:55:02.675Z,390
2018-12-07T09:00:03.107Z,347
2018-12-07T09:05:02.654Z,403
2018-12-07T09:10:03.197Z,410
2018-12-07T09:15:02.613Z,380
2018-12-07T09:20:03.044Z,469
2018-12-07T09:25:02.532Z,514
2018-12-07T09:30:02.955Z,446
2018-12-07T09:35:03.323Z,437
2018-12-07T09:40:02.902Z,477
2018-12-07T09:45:02.419Z,544
2018-12-07T09:50:02.929Z,530
2018-12-07T09:55:02.450Z,476
2018-12-07T10:00:02.948Z,514
2018-12-07T10:05:02.675Z,574
2018-12-07T10:10:03.254Z,558
2018-12-07T10:15:02.691Z,646
2018-12-07T10:20:03.244Z,709
2018-12-07T10:25:02.885Z,694
2018-12-07T10:30:03.322Z,819
2018-12-07T10:35:02.790Z,947
2018-12-07T10:40:02.412Z,996
2018-12-07T10:45:02.950Z,1000
2018-12-07T10:50:02.465Z,865
2018-12-07T10:55:02.912Z,736
2018-12-07T11:00:02.513Z,891
2018-12-07T11:05:03.017Z,997
2018-12-07T11:10:02.547Z,1000
2018-12-07T11:15:03.056Z,992
2018-12-07T11:20:02.583Z,1000
2018-12-07T11:25:03.053Z,888
2018-12-07T11:30:02.532Z,1000
2018-12-07T11:35:02.993Z,1000
2018-12-07T11:40:02.425Z,1000
2018-12-07T11:45:02.882Z,1000
2018-12-07T11:50:03.365Z,1000
2018-12-07T11:55:02.769Z,1000
2018-12-07T12:00:03.365Z,964
2018-12-07T12:05:02.860Z,834
2018-12-07T12:10:03.413Z,859
2018-12-07T12:15:02.887Z,808
2018-12-07T12:20:02.426Z,808
2018-12-07T12:25:03.022Z,936
2018-12-07T12:30:02.542Z,910
2018-12-07T12:35:03.030Z,859
2018-12-07T12:40:02.902Z,884
2018-12-07T12:45:02.539Z,1000
2018-12-07T12:50:03.038Z,1000
2018-12-07T12:55:02.537Z,1000
2018-12-07T13:00:02.983Z,1000
2018-12-07T13:05:02.443Z,2000
2018-12-07T13:10:02.950Z,1000
2018-12-07T13:15:02.516Z,1000
2018-12-07T13:20:02.885Z,785
2018-12-07T13:25:02.430Z,1000
2018-12-07T13:30:03.274Z,1000
2018-12-07T13:35:02.782Z,1000
2018-12-07T13:40:03.439Z,475
2018-12-07T13:45:05.232Z,618
2018-12-07T13:50:03.419Z,477
2018-12-07T13:55:03.491Z,517
2018-12-07T14:00:03.553Z,526
2018-12-07T14:05:02.742Z,381
2018-12-07T14:10:02.852Z,262
2018-12-07T14:15:03.221Z,113
2018-12-07T14:20:03.405Z,171
2018-12-07T14:25:03.639Z,85
2018-12-07T14:30:02.753Z,108
2018-12-07T14:35:02.978Z,75
2018-12-07T14:40:02.981Z,89
2018-12-07T14:45:02.915Z,77
2018-12-07T14:50:03.018Z,65
2018-12-07T14:55:02.887Z,57
2018-12-07T15:00:03.399Z,49
2018-12-07T15:05:02.781Z,42
2018-12-07T15:10:02.654Z,31
2018-12-07T15:15:03.329Z,34
2018-12-07T15:20:03.457Z,35
2018-12-07T15:25:02.702Z,22
2018-12-07T15:30:02.813Z,18
2018-12-07T15:35:03.054Z,17
2018-12-07T15:40:03.305Z,7
2018-12-07T15:45:03.171Z,7
2018-12-07T15:50:03.234Z,5
2018-12-07T15:55:03.494Z,4
2018-12-07T16:00:03.388Z,3
2018-12-07T16:05:03.554Z,2
2018-12-07T16:10:02.813Z,2
2018-12-07T16:15:02.839Z,2
2018-12-07T16:20:02.999Z,1
2018-12-07T16:25:03.478Z,1
2018-12-07T16:30:02.674Z,1
2018-12-07T16:35:03.676Z,1
2018-12-07T16:40:02.896Z,1
2018-12-07T16:45:03.211Z,1
2018-12-07T16:50:03.040Z,1
2018-12-07T16:55:03.087Z,1
2018-12-07T17:00:03.744Z,1
2018-12-07T17:05:03.367Z,1
2018-12-07T17:10:03.572Z,1
2018-12-07T17:15:03.377Z,1
2018-12-07T17:20:03.018Z,1
2018-12-07T17:25:03.162Z,1
2018-12-07T17:30:03.815Z,1
2018-12-07T17:35:02.925Z,1
2018-12-07T17:40:03.308Z,1
2018-12-07T17:45:03.428Z,1
2018-12-07T17:50:03.484Z,1
2018-12-07T17:55:02.783Z,1
2018-12-07T18:00:03.065Z,1
2018-12-07T18:05:03.450Z,1
2018-12-07T18:10:03.437Z,1
2018-12-07T18:15:02.707Z,1
2018-12-07T18:20:03.548Z,1
2018-12-07T18:25:02.930Z,1
2018-12-07T18:30:03.576Z,1
2018-12-07T18:35:02.762Z,1
2018-12-07T18:40:03.034Z,1
2018-12-07T18:45:03.532Z,1
2018-12-07T18:50:02.751Z,1
2018-12-07T18:55:03.310Z,1
2018-12-07T19:00:03.635Z,1
2018-12-07T19:05:03.246Z,1
2018-12-07T19:10:03.567Z,1
2018-12-07T19:15:02.918Z,1
2018-12-07T19:20:03.579Z,1
2018-12-07T19:25:02.740Z,1
2018-12-07T19:30:03.205Z,1
2018-12-07T19:35:02.611Z,1
2018-12-07T19:40:03.198Z,1
2018-12-07T19:45:03.172Z,1
2018-12-07T19:50:04.134Z,1
2018-12-07T19:55:03.500Z,1
2018-12-07T20:00:03.003Z,1
2018-12-07T20:05:03.419Z,1
2018-12-07T20:10:02.862Z,1
2018-12-07T20:15:03.337Z,1
2018-12-07T20:20:03.795Z,1
2018-12-07T20:25:03.214Z,1
2018-12-07T20:30:03.357Z,1
2018-12-07T20:35:02.992Z,1
2018-12-07T20:40:03.613Z,1
2018-12-07T20:45:02.772Z,1
2018-12-07T20:50:03.575Z,1
2018-12-07T20:55:03.225Z,1
2018-12-07T21:00:02.932Z,1
2018-12-07T21:05:03.839Z,1
2018-12-07T21:10:02.878Z,1
2018-12-07T21:15:02.932Z,1
2018-12-07T21:20:03.339Z,1
2018-12-07T21:25:02.759Z,1
2018-12-07T21:30:03.068Z,1
2018-12-07T21:35:03.282Z,1
2018-12-07T21:40:03.646Z,1
2018-12-07T21:45:02.941Z,1
2018-12-07T21:50:03.416Z,1
2018-12-07T21:55:02.561Z,1
2018-12-07T22:00:03.570Z,1
2018-12-07T22:05:03.240Z,1
2018-12-07T22:10:03.524Z,1
2018-12-07T22:15:02.960Z,1
2018-12-07T22:20:03.677Z,1
2018-12-07T22:25:03.091Z,1
2018-12-07T22:30:03.264Z,1
2018-12-07T22:35:03.449Z,1
2018-12-07T22:40:03.354Z,1
2018-12-07T22:45:02.978Z,1
2018-12-07T22:50:02.973Z,1
2018-12-07T22:55:02.613Z,1
2018-12-07T23:00:03.043Z,1
2018-12-07T23:05:02.734Z,1
2018-12-07T23:10:02.416Z,1
2018-12-07T23:15:03.006Z,1
2018-12-07T23:20:02.488Z,1
2018-12-07T23:25:02.947Z,1
2018-12-07T23:30:02.462Z,1
2018-12-07T23:35:02.880Z,1
2018-12-07T23:40:03.635Z,1
2018-12-07T23:45:03.205Z,1
2018-12-07T23:50:02.713Z,1
2018-12-07T23:55:03.310Z,1
